createdAt,value
2023-02-19T00:12:47.857Z,8.73
2023-02-19T00:32:47.845Z,8.72
2023-02-19T00:52:47.880Z,8.64
2023-02-19T01:12:47.871Z,8.73
2023-02-19T01:32:47.866Z,8.78
2023-02-19T01:52:47.885Z,8.86
2023-02-19T02:12:47.782Z,8.74
2023-02-19T02:32:47.791Z,8.90
2023-02-19T02:52:47.786Z,8.58
2023-02-19T03:12:47.789Z,8.33
2023-02-19T03:32:47.828Z,8.07
2023-02-19T03:52:47.791Z,7.78
2023-02-19T04:12:47.791Z,7.65
2023-02-19T04:32:47.817Z,7.60
2023-02-19T04:52:47.705Z,7.59
2023-02-19T05:12:47.706Z,7.63
2023-02-19T05:32:47.707Z,7.59
2023-02-19T05:52:47.698Z,7.59
2023-02-19T06:12:47.703Z,7.59
2023-02-19T06:32:47.721Z,7.45
2023-02-19T06:52:47.720Z,7.55
2023-02-19T07:12:47.724Z,7.65
2023-02-19T07:32:47.613Z,7.53
2023-02-19T07:52:47.618Z,7.29
2023-02-19T08:12:47.651Z,7.56
2023-02-19T08:32:47.650Z,7.70
2023-02-19T08:52:47.629Z,8.01
2023-02-19T09:12:47.625Z,8.22
2023-02-19T09:32:47.643Z,8.16
2023-02-19T09:52:47.561Z,8.80
2023-02-19T10:12:47.600Z,8.74
2023-02-19T10:32:47.578Z,9.60
2023-02-19T10:52:47.568Z,9.40
2023-02-19T11:12:47.578Z,10.04
2023-02-19T11:32:47.485Z,10.30
2023-02-19T11:52:47.517Z,9.93
2023-02-19T12:12:47.501Z,9.58
2023-02-19T12:32:47.512Z,9.58
2023-02-19T12:52:47.523Z,8.56
2023-02-19T13:12:47.430Z,8.73
2023-02-19T13:32:47.466Z,8.95
2023-02-19T13:52:47.470Z,8.73
2023-02-19T14:12:47.455Z,8.90
2023-02-19T14:32:47.522Z,8.73
2023-02-19T14:52:47.480Z,8.43
2023-02-19T15:12:47.363Z,8.45
2023-02-19T15:32:47.457Z,8.70
2023-02-19T15:52:47.390Z,8.92
2023-02-19T16:12:47.498Z,8.35
2023-02-19T16:32:47.365Z,8.01
2023-02-19T16:52:47.316Z,7.65
2023-02-19T17:12:47.320Z,7.30
2023-02-19T17:32:47.317Z,7.11
2023-02-19T17:52:47.335Z,7.08
2023-02-19T18:12:47.339Z,7.05
2023-02-19T18:32:47.345Z,7.02
2023-02-19T18:52:47.244Z,6.95
2023-02-19T19:12:47.268Z,6.88
2023-02-19T19:32:47.336Z,7.06
2023-02-19T19:52:47.276Z,6.93
2023-02-19T20:12:47.283Z,6.81
2023-02-19T20:32:47.278Z,6.89
2023-02-19T20:52:47.287Z,6.77
2023-02-19T21:12:47.188Z,6.79
2023-02-19T21:32:47.218Z,6.78
2023-02-19T21:52:47.243Z,6.82
2023-02-19T22:12:47.206Z,6.86
2023-02-19T22:32:47.203Z,6.92
2023-02-19T22:52:47.314Z,6.88
2023-02-19T23:12:47.219Z,6.81
2023-02-19T23:32:47.288Z,6.76
2023-02-19T23:52:47.120Z,6.77
